Carnival Victory — 3FFL8 — position and weather

sailwx.info

Track history (hours):
 
Tides and Currents Weather Stations Pressure Air Temp Water Temp Dewpoint Dewpoint Depression Visibility Wind Speed Wind Dir Waves Ship Positions

Carnival Victory

Operator: Carnival Cruise Lines

Last reported at 2018-Jun-20 07:28 UTC. Time now 2018-Jun-20 07:40 UTC.
Position N 22°06' W 085°17'.

Type: Passenger vessel. MMSI: 355263000.

Date/timePositionNaut miles runAvg speedWind from/ knotsBaromVisibWave heightAir tempDewpointWater temp
2018-Jun-20 07:28N 22°06' W 085°17'35211.2
2018-Jun-18 23:54N 25°11' W 079°50'614.9
2018-Jun-18 23:31N 25°17' W 079°48'714.7
2018-Jun-18 23:00N 25°24' W 079°47'714.4
2018-Jun-18 22:31N 25°31' W 079°46'612.4
2018-Jun-18 22:00N 25°37' W 079°48'5 9.3
2018-Jun-18 21:30N 25°40' W 079°52'5 9.3
2018-Jun-18 21:00N 25°43' W 079°57'5 9.6
2018-Jun-18 20:30N 25°45' W 080°01'5 9.7
2018-Jun-18 20:00N 25°46' W 080°06'3 5.8
2018-Jun-18 19:28N 25°46' W 080°10'0 0.0
2018-Jun-18 18:58N 25°46' W 080°10'0 0.0
2018-Jun-18 18:28N 25°46' W 080°10'0 0.0
2018-Jun-18 17:58N 25°46' W 080°10'0 0.0
2018-Jun-18 17:30N 25°46' W 080°10'  
2018-Jun-12 10:00N 25°36' W 077°00'12214.4 110 / 121017.527.0 26.021.828.0
2018-Jun-12 01:33N 26°18' W 079°07'612.3
2018-Jun-12 01:03N 26°15' W 079°13'112.2
2018-Jun-12 01:00N 26°15' W 079°14'612.0
2018-Jun-12 00:30N 26°12' W 079°19'510.5
2018-Jun-12 00:00N 26°09' W 079°24'510.3
2018-Jun-11 23:30N 26°06' W 079°29'510.6
2018-Jun-11 23:00N 26°03' W 079°34'510.6
2018-Jun-11 22:30N 26°00' W 079°39'510.9
2018-Jun-11 22:00N 25°57' W 079°44'713.9
2018-Jun-11 21:30N 25°54' W 079°50'714.2
2018-Jun-11 21:00N 25°50' W 079°57'713.1
2018-Jun-11 20:30N 25°47' W 080°04'5 9.7
2018-Jun-11 20:00N 25°46' W 080°09'1 2.2
2018-Jun-11 19:28N 25°47' W 080°10'0 0.0
2018-Jun-11 18:58N 25°47' W 080°10'0 0.0
2018-Jun-11 18:28N 25°47' W 080°10'0 0.0
2018-Jun-11 17:58N 25°47' W 080°10'0 0.0
2018-Jun-11 17:19N 25°47' W 080°10'0 0.0
2018-Jun-11 16:58N 25°47' W 080°10'0 0.0
2018-Jun-11 16:22N 25°47' W 080°10'0 0.0
2018-Jun-11 15:58N 25°47' W 080°10'0 0.0
2018-Jun-11 15:28N 25°47' W 080°10'0 0.0
2018-Jun-11 14:58N 25°47' W 080°10'0 0.0
2018-Jun-11 14:29N 25°47' W 080°10'0 0.0
2018-Jun-11 13:58N 25°47' W 080°10'0 0.0
2018-Jun-11 13:28N 25°47' W 080°10'0 0.0
2018-Jun-11 12:58N 25°47' W 080°10'0 0.0
2018-Jun-11 12:28N 25°47' W 080°10'0 0.0
2018-Jun-11 11:58N 25°47' W 080°10'0 0.0
2018-Jun-11 11:28N 25°47' W 080°10'0 0.0
2018-Jun-11 10:58N 25°47' W 080°10'0 0.5
2018-Jun-11 10:30N 25°47' W 080°10'1 1.9
2018-Jun-11 10:00N 25°46' W 080°09'611.2
2018-Jun-11 09:30N 25°47' W 080°03'4 8.3
2018-Jun-11 09:00N 25°48' W 079°59'4 8.4
2018-Jun-11 08:29N 25°50' W 079°54'510.1
2018-Jun-11 08:00N 25°52' W 079°49'510.1
2018-Jun-11 07:30N 25°53' W 079°44'510.6
2018-Jun-11 07:00N 25°56' W 079°39'510.5
2018-Jun-11 06:30N 26°00' W 079°36'510.0
2018-Jun-11 06:00N 26°04' W 079°33'510.2
2018-Jun-11 05:30N 26°09' W 079°30'510.4
2018-Jun-11 05:00N 26°13' W 079°26'510.7
2018-Jun-11 04:30N 26°17' W 079°23'  
Track history (hours):
 
Tides and Currents Weather Stations Pressure Air Temp Water Temp Dewpoint Dewpoint Depression Visibility Wind Speed Wind Dir Waves Ship Positions

Carnival Victory

Operator: Carnival Cruise Lines

Last reported at 2018-Jun-20 07:28 UTC. Time now 2018-Jun-20 07:40 UTC.
Position N 22°06' W 085°17'.

Type: Passenger vessel. MMSI: 355263000.

Date/timePositionNaut miles runAvg speedWind from/ knotsBaromVisibWave heightAir tempDewpointWater temp
2018-Jun-20 07:28N 22°06' W 085°17'35211.2
2018-Jun-18 23:54N 25°11' W 079°50'614.9
2018-Jun-18 23:31N 25°17' W 079°48'714.7
2018-Jun-18 23:00N 25°24' W 079°47'714.4
2018-Jun-18 22:31N 25°31' W 079°46'612.4
2018-Jun-18 22:00N 25°37' W 079°48'5 9.3
2018-Jun-18 21:30N 25°40' W 079°52'5 9.3
2018-Jun-18 21:00N 25°43' W 079°57'5 9.6
2018-Jun-18 20:30N 25°45' W 080°01'5 9.7
2018-Jun-18 20:00N 25°46' W 080°06'3 5.8
2018-Jun-18 19:28N 25°46' W 080°10'0 0.0
2018-Jun-18 18:58N 25°46' W 080°10'0 0.0
2018-Jun-18 18:28N 25°46' W 080°10'0 0.0
2018-Jun-18 17:58N 25°46' W 080°10'0 0.0
2018-Jun-18 17:30N 25°46' W 080°10'  
2018-Jun-12 10:00N 25°36' W 077°00'12214.4 110 / 121017.527.0 26.021.828.0
2018-Jun-12 01:33N 26°18' W 079°07'612.3
2018-Jun-12 01:03N 26°15' W 079°13'112.2
2018-Jun-12 01:00N 26°15' W 079°14'612.0
2018-Jun-12 00:30N 26°12' W 079°19'510.5
2018-Jun-12 00:00N 26°09' W 079°24'510.3
2018-Jun-11 23:30N 26°06' W 079°29'510.6
2018-Jun-11 23:00N 26°03' W 079°34'510.6
2018-Jun-11 22:30N 26°00' W 079°39'510.9
2018-Jun-11 22:00N 25°57' W 079°44'713.9
2018-Jun-11 21:30N 25°54' W 079°50'714.2
2018-Jun-11 21:00N 25°50' W 079°57'713.1
2018-Jun-11 20:30N 25°47' W 080°04'5 9.7
2018-Jun-11 20:00N 25°46' W 080°09'1 2.2
2018-Jun-11 19:28N 25°47' W 080°10'0 0.0
2018-Jun-11 18:58N 25°47' W 080°10'0 0.0
2018-Jun-11 18:28N 25°47' W 080°10'0 0.0
2018-Jun-11 17:58N 25°47' W 080°10'0 0.0
2018-Jun-11 17:19N 25°47' W 080°10'0 0.0
2018-Jun-11 16:58N 25°47' W 080°10'0 0.0
2018-Jun-11 16:22N 25°47' W 080°10'0 0.0
2018-Jun-11 15:58N 25°47' W 080°10'0 0.0
2018-Jun-11 15:28N 25°47' W 080°10'0 0.0
2018-Jun-11 14:58N 25°47' W 080°10'0 0.0
2018-Jun-11 14:29N 25°47' W 080°10'0 0.0
2018-Jun-11 13:58N 25°47' W 080°10'0 0.0
2018-Jun-11 13:28N 25°47' W 080°10'0 0.0
2018-Jun-11 12:58N 25°47' W 080°10'0 0.0
2018-Jun-11 12:28N 25°47' W 080°10'0 0.0
2018-Jun-11 11:58N 25°47' W 080°10'0 0.0
2018-Jun-11 11:28N 25°47' W 080°10'0 0.0
2018-Jun-11 10:58N 25°47' W 080°10'0 0.5
2018-Jun-11 10:30N 25°47' W 080°10'1 1.9
2018-Jun-11 10:00N 25°46' W 080°09'611.2
2018-Jun-11 09:30N 25°47' W 080°03'4 8.3
2018-Jun-11 09:00N 25°48' W 079°59'4 8.4
2018-Jun-11 08:29N 25°50' W 079°54'510.1
2018-Jun-11 08:00N 25°52' W 079°49'510.1
2018-Jun-11 07:30N 25°53' W 079°44'510.6
2018-Jun-11 07:00N 25°56' W 079°39'510.5
2018-Jun-11 06:30N 26°00' W 079°36'510.0
2018-Jun-11 06:00N 26°04' W 079°33'510.2
2018-Jun-11 05:30N 26°09' W 079°30'510.4
2018-Jun-11 05:00N 26°13' W 079°26'510.7
2018-Jun-11 04:30N 26°17' W 079°23'  

Dump ship's entire track history